Caribbean Galaxy — 3EZV4 — position and weather

sailwx.info

Track history (hours):
 
Tides and Currents Weather Stations Pressure Air Temp Water Temp Dewpoint Dewpoint Depression Visibility Wind Speed Wind Dir Waves Ship Positions

Caribbean Galaxy

Last reported at 2017-May-20 16:33 UTC. Time now 2017-May-25 03:08 UTC.
Position S 38°07' E 144°55'.

Length 246 m; draft 10.2 m.

Type: Ship. MMSI: 357449000.

Date/timePositionNaut miles runAvg speedWind from/ knotsBaromVisibWave heightAir tempDewpointWater temp
2017-May-20 16:33S 38°07' E 144°55'113.4
2017-May-20 16:29S 38°06' E 144°55'713.4
2017-May-20 15:59S 37°59' E 144°55'612.0
2017-May-20 15:27S 37°53' E 144°56'1 2.9
2017-May-20 15:00S 37°52' E 144°55'0 0.0
2017-May-20 11:01S 37°52' E 144°55'0 0.0
2017-May-20 10:58S 37°52' E 144°55'0 0.0
2017-May-20 05:52S 37°52' E 144°55'0 0.0
2017-May-19 22:04S 37°52' E 144°55'0 0.0
2017-May-19 21:43S 37°52' E 144°55'0 0.0
2017-May-19 21:28S 37°52' E 144°55'0 0.0
2017-May-19 20:55S 37°52' E 144°55'0 0.0
2017-May-19 20:13S 37°52' E 144°55'0 0.0
2017-May-19 19:52S 37°52' E 144°55'0 0.0
2017-May-19 19:25S 37°52' E 144°55'0 0.0
2017-May-19 18:58S 37°52' E 144°55'0 0.0
2017-May-19 18:07S 37°52' E 144°55'0 0.0
2017-May-19 17:46S 37°52' E 144°55'0 0.0
2017-May-19 17:13S 37°52' E 144°55'0 0.0
2017-May-19 16:58S 37°52' E 144°55'0 0.0
2017-May-19 16:28S 37°52' E 144°55'0 0.0
2017-May-19 15:52S 37°52' E 144°55'0 0.0
2017-May-19 15:25S 37°52' E 144°55'0 0.0
2017-May-19 13:49S 37°52' E 144°55'0 0.0
2017-May-19 13:28S 37°52' E 144°55'0 0.0
2017-May-19 12:49S 37°52' E 144°55'0 0.0
2017-May-19 12:04S 37°52' E 144°55'0 0.0
2017-May-19 11:58S 37°52' E 144°55'0 0.0
2017-May-19 10:40S 37°52' E 144°55'0 0.0
2017-May-19 08:04S 37°52' E 144°55'0 0.0
2017-May-18 13:52S 37°52' E 144°55'0 0.0
2017-May-18 12:34S 37°52' E 144°55'0 0.0
2017-May-18 12:28S 37°52' E 144°55'5 1.0
2017-May-18 07:01S 37°57' E 144°55'0 8.1
2017-May-18 06:59S 37°57' E 144°54'1 0.1
2017-May-17 18:21S 37°57' E 144°53'0 0.0
2017-May-17 18:00S 37°57' E 144°53'0 0.0
2017-May-17 17:26S 37°57' E 144°53'0 0.1
2017-May-17 15:59S 37°58' E 144°53'0 0.1
2017-May-17 15:30S 37°58' E 144°53'0 0.0
2017-May-17 14:59S 37°58' E 144°53'0 0.0
2017-May-17 14:00S 37°58' E 144°53'0 0.1
2017-May-17 13:27S 37°58' E 144°53'0 0.0
2017-May-17 12:45S 37°58' E 144°53'0 0.2
2017-May-17 12:30S 37°58' E 144°53'0 0.1
2017-May-17 11:54S 37°58' E 144°53'0 0.0
2017-May-17 11:30S 37°58' E 144°53'0 0.0
2017-May-16 18:20S 37°58' E 144°53'0 0.1
2017-May-16 17:54S 37°58' E 144°53'0 0.0
2017-May-16 17:17S 37°58' E 144°53'0 0.0
2017-May-16 17:00S 37°58' E 144°53'0 0.0
2017-May-16 16:30S 37°58' E 144°53'0 0.0
2017-May-16 15:54S 37°58' E 144°53'0 0.0
2017-May-16 15:30S 37°58' E 144°53'0 0.0
2017-May-16 14:17S 37°58' E 144°53'0 0.0
2017-May-16 13:30S 37°58' E 144°53'0 0.1
2017-May-16 13:00S 37°58' E 144°53'0 0.1
2017-May-16 12:30S 37°58' E 144°53'0 0.0
2017-May-16 12:00S 37°58' E 144°53'0 0.1
2017-May-16 11:23S 37°58' E 144°53'0 0.0
2017-May-16 08:45S 37°58' E 144°53'0 0.0
2017-May-15 17:12S 37°58' E 144°53'0 0.0
2017-May-15 16:36S 37°58' E 144°53'0 0.0
2017-May-15 16:29S 37°58' E 144°53'0 0.0
2017-May-15 15:15S 37°58' E 144°53'0 0.1
2017-May-15 15:00S 37°58' E 144°53'0 0.0
2017-May-15 13:51S 37°58' E 144°53'0 0.1
2017-May-15 13:09S 37°58' E 144°53'0 0.3
2017-May-15 13:00S 37°58' E 144°53'0 0.0
2017-May-15 11:42S 37°58' E 144°53'0 0.3
2017-May-15 11:30S 37°58' E 144°53'0 0.0
2017-May-15 08:35S 37°57' E 144°53'0 0.0
2017-May-15 08:24S 37°57' E 144°53'1 0.6
2017-May-15 06:43S 37°57' E 144°54'1 4.9
2017-May-15 06:30S 37°57' E 144°56'5 8.5
2017-May-15 05:58S 37°52' E 144°55'  
Track history (hours):
 
Tides and Currents Weather Stations Pressure Air Temp Water Temp Dewpoint Dewpoint Depression Visibility Wind Speed Wind Dir Waves Ship Positions

Caribbean Galaxy

Last reported at 2017-May-20 16:33 UTC. Time now 2017-May-25 03:08 UTC.
Position S 38°07' E 144°55'.

Length 246 m; draft 10.2 m.

Type: Ship. MMSI: 357449000.

Date/timePositionNaut miles runAvg speedWind from/ knotsBaromVisibWave heightAir tempDewpointWater temp
2017-May-20 16:33S 38°07' E 144°55'113.4
2017-May-20 16:29S 38°06' E 144°55'713.4
2017-May-20 15:59S 37°59' E 144°55'612.0
2017-May-20 15:27S 37°53' E 144°56'1 2.9
2017-May-20 15:00S 37°52' E 144°55'0 0.0
2017-May-20 11:01S 37°52' E 144°55'0 0.0
2017-May-20 10:58S 37°52' E 144°55'0 0.0
2017-May-20 05:52S 37°52' E 144°55'0 0.0
2017-May-19 22:04S 37°52' E 144°55'0 0.0
2017-May-19 21:43S 37°52' E 144°55'0 0.0
2017-May-19 21:28S 37°52' E 144°55'0 0.0
2017-May-19 20:55S 37°52' E 144°55'0 0.0
2017-May-19 20:13S 37°52' E 144°55'0 0.0
2017-May-19 19:52S 37°52' E 144°55'0 0.0
2017-May-19 19:25S 37°52' E 144°55'0 0.0
2017-May-19 18:58S 37°52' E 144°55'0 0.0
2017-May-19 18:07S 37°52' E 144°55'0 0.0
2017-May-19 17:46S 37°52' E 144°55'0 0.0
2017-May-19 17:13S 37°52' E 144°55'0 0.0
2017-May-19 16:58S 37°52' E 144°55'0 0.0
2017-May-19 16:28S 37°52' E 144°55'0 0.0
2017-May-19 15:52S 37°52' E 144°55'0 0.0
2017-May-19 15:25S 37°52' E 144°55'0 0.0
2017-May-19 13:49S 37°52' E 144°55'0 0.0
2017-May-19 13:28S 37°52' E 144°55'0 0.0
2017-May-19 12:49S 37°52' E 144°55'0 0.0
2017-May-19 12:04S 37°52' E 144°55'0 0.0
2017-May-19 11:58S 37°52' E 144°55'0 0.0
2017-May-19 10:40S 37°52' E 144°55'0 0.0
2017-May-19 08:04S 37°52' E 144°55'0 0.0
2017-May-18 13:52S 37°52' E 144°55'0 0.0
2017-May-18 12:34S 37°52' E 144°55'0 0.0
2017-May-18 12:28S 37°52' E 144°55'5 1.0
2017-May-18 07:01S 37°57' E 144°55'0 8.1
2017-May-18 06:59S 37°57' E 144°54'1 0.1
2017-May-17 18:21S 37°57' E 144°53'0 0.0
2017-May-17 18:00S 37°57' E 144°53'0 0.0
2017-May-17 17:26S 37°57' E 144°53'0 0.1
2017-May-17 15:59S 37°58' E 144°53'0 0.1
2017-May-17 15:30S 37°58' E 144°53'0 0.0
2017-May-17 14:59S 37°58' E 144°53'0 0.0
2017-May-17 14:00S 37°58' E 144°53'0 0.1
2017-May-17 13:27S 37°58' E 144°53'0 0.0
2017-May-17 12:45S 37°58' E 144°53'0 0.2
2017-May-17 12:30S 37°58' E 144°53'0 0.1
2017-May-17 11:54S 37°58' E 144°53'0 0.0
2017-May-17 11:30S 37°58' E 144°53'0 0.0
2017-May-16 18:20S 37°58' E 144°53'0 0.1
2017-May-16 17:54S 37°58' E 144°53'0 0.0
2017-May-16 17:17S 37°58' E 144°53'0 0.0
2017-May-16 17:00S 37°58' E 144°53'0 0.0
2017-May-16 16:30S 37°58' E 144°53'0 0.0
2017-May-16 15:54S 37°58' E 144°53'0 0.0
2017-May-16 15:30S 37°58' E 144°53'0 0.0
2017-May-16 14:17S 37°58' E 144°53'0 0.0
2017-May-16 13:30S 37°58' E 144°53'0 0.1
2017-May-16 13:00S 37°58' E 144°53'0 0.1
2017-May-16 12:30S 37°58' E 144°53'0 0.0
2017-May-16 12:00S 37°58' E 144°53'0 0.1
2017-May-16 11:23S 37°58' E 144°53'0 0.0
2017-May-16 08:45S 37°58' E 144°53'0 0.0
2017-May-15 17:12S 37°58' E 144°53'0 0.0
2017-May-15 16:36S 37°58' E 144°53'0 0.0
2017-May-15 16:29S 37°58' E 144°53'0 0.0
2017-May-15 15:15S 37°58' E 144°53'0 0.1
2017-May-15 15:00S 37°58' E 144°53'0 0.0
2017-May-15 13:51S 37°58' E 144°53'0 0.1
2017-May-15 13:09S 37°58' E 144°53'0 0.3
2017-May-15 13:00S 37°58' E 144°53'0 0.0
2017-May-15 11:42S 37°58' E 144°53'0 0.3
2017-May-15 11:30S 37°58' E 144°53'0 0.0
2017-May-15 08:35S 37°57' E 144°53'0 0.0
2017-May-15 08:24S 37°57' E 144°53'1 0.6
2017-May-15 06:43S 37°57' E 144°54'1 4.9
2017-May-15 06:30S 37°57' E 144°56'5 8.5
2017-May-15 05:58S 37°52' E 144°55'  

Dump ship's entire track history